sensor_id;sensor_type;location;lat;lon;timestamp;pressure;altitude;pressure_sealevel;temperature;humidity
62103;BME280;48077;48.104;11.702;2023-07-28T00:00:13;94952.03;;;13.61;100.00
62103;BME280;48077;48.104;11.702;2023-07-28T00:07:41;94947.97;;;13.43;100.00
62103;BME280;48077;48.104;11.702;2023-07-28T00:10:05;94931.31;;;13.31;100.00
62103;BME280;48077;48.104;11.702;2023-07-28T00:12:28;94944.44;;;13.32;100.00
62103;BME280;48077;48.104;11.702;2023-07-28T00:14:52;94937.69;;;13.25;100.00
62103;BME280;48077;48.104;11.702;2023-07-28T00:17:15;94922.66;;;13.19;100.00
62103;BME280;48077;48.104;11.702;2023-07-28T00:19:38;94930.75;;;13.24;100.00
62103;BME280;48077;48.104;11.702;2023-07-28T00:22:02;94923.22;;;13.21;100.00
62103;BME280;48077;48.104;11.702;2023-07-28T00:24:25;94921.88;;;13.18;100.00
62103;BME280;48077;48.104;11.702;2023-07-28T00:26:49;94923.22;;;13.21;100.00
62103;BME280;48077;48.104;11.702;2023-07-28T00:29:12;94922.41;;;13.15;100.00
62103;BME280;48077;48.104;11.702;2023-07-28T00:31:35;94925.88;;;13.21;100.00
62103;BME280;48077;48.104;11.702;2023-07-28T00:33:59;94936.34;;;13.17;100.00
62103;BME280;48077;48.104;11.702;2023-07-28T00:36:22;94937.13;;;13.18;100.00
62103;BME280;48077;48.104;11.702;2023-07-28T00:38:46;94925.88;;;13.10;100.00
62103;BME280;48077;48.104;11.702;2023-07-28T00:41:10;94944.09;;;13.19;100.00
62103;BME280;48077;48.104;11.702;2023-07-28T00:43:33;94943.28;;;13.18;100.00
62103;BME280;48077;48.104;11.702;2023-07-28T00:45:56;94928.56;;;13.10;100.00
62103;BME280;48077;48.104;11.702;2023-07-28T00:48:20;94939.03;;;13.22;100.00
62103;BME280;48077;48.104;11.702;2023-07-28T00:50:45;94927.25;;;13.23;100.00
62103;BME280;48077;48.104;11.702;2023-07-28T00:53:08;94932.06;;;13.26;100.00
62103;BME280;48077;48.104;11.702;2023-07-28T00:55:32;94924.03;;;13.26;100.00
62103;BME280;48077;48.104;11.702;2023-07-28T00:57:55;94918.94;;;13.25;100.00
62103;BME280;48077;48.104;11.702;2023-07-28T01:00:18;94932.44;;;13.40;100.00
62103;BME280;48077;48.104;11.702;2023-07-28T01:02:42;94920.59;;;13.31;100.00
62103;BME280;48077;48.104;11.702;2023-07-28T01:05:05;94913.09;;;13.33;100.00
62103;BME280;48077;48.104;11.702;2023-07-28T01:10:14;94921.47;;;13.42;100.00
62103;BME280;48077;48.104;11.702;2023-07-28T01:12:40;94922.25;;;13.42;100.00
62103;BME280;48077;48.104;11.702;2023-07-28T01:15:03;94927.06;;;13.40;100.00
62103;BME280;48077;48.104;11.702;2023-07-28T01:17:27;94935.09;;;13.40;100.00
62103;BME280;48077;48.104;11.702;2023-07-28T01:19:53;94934.03;;;13.36;100.00
62103;BME280;48077;48.104;11.702;2023-07-28T01:22:40;94924.66;;;13.33;100.00
62103;BME280;48077;48.104;11.702;2023-07-28T01:25:15;94935.88;;;13.30;100.00
62103;BME280;48077;48.104;11.702;2023-07-28T01:27:42;94917.06;;;13.20;100.00
62103;BME280;48077;48.104;11.702;2023-07-28T01:30:06;94924.03;;;13.26;100.00
62103;BME280;48077;48.104;11.702;2023-07-28T01:32:30;94930.19;;;13.27;100.00
62103;BME280;48077;48.104;11.702;2023-07-28T01:34:53;94926.97;;;13.20;100.00
62103;BME280;48077;48.104;11.702;2023-07-28T01:37:17;94925.09;;;13.20;100.00
62103;BME280;48077;48.104;11.702;2023-07-28T01:39:40;94928.84;;;13.24;100.00
62103;BME280;48077;48.104;11.702;2023-07-28T01:42:03;94921.31;;;13.16;100.00
62103;BME280;48077;48.104;11.702;2023-07-28T01:44:27;94930.44;;;13.15;100.00
62103;BME280;48077;48.104;11.702;2023-07-28T01:46:50;94930.94;;;13.12;100.00
62103;BME280;48077;48.104;11.702;2023-07-28T01:49:13;94920.19;;;13.02;100.00
62103;BME280;48077;48.104;11.702;2023-07-28T01:51:37;94921.28;;;13.01;100.00
62103;BME280;48077;48.104;11.702;2023-07-28T01:54:00;94924.75;;;12.96;100.00
62103;BME280;48077;48.104;11.702;2023-07-28T01:56:26;94920.41;;;12.85;100.00
62103;BME280;48077;48.104;11.702;2023-07-28T01:58:49;94914.75;;;12.81;100.00
62103;BME280;48077;48.104;11.702;2023-07-28T02:01:15;94914.72;;;12.71;100.00
62103;BME280;48077;48.104;11.702;2023-07-28T02:03:38;94928.41;;;12.80;100.00
62103;BME280;48077;48.104;11.702;2023-07-28T02:06:02;94935.91;;;12.78;100.00
62103;BME280;48077;48.104;11.702;2023-07-28T02:08:25;94918.44;;;12.65;100.00
62103;BME280;48077;48.104;11.702;2023-07-28T02:10:48;94927.28;;;12.70;100.00
62103;BME280;48077;48.104;11.702;2023-07-28T02:13:12;94927.28;;;12.65;100.00
62103;BME280;48077;48.104;11.702;2023-07-28T02:15:35;94932.88;;;12.64;100.00
62103;BME280;48077;48.104;11.702;2023-07-28T02:17:58;94922.63;;;12.50;100.00
62103;BME280;48077;48.104;11.702;2023-07-28T02:20:22;94930.13;;;12.53;100.00
62103;BME280;48077;48.104;11.702;2023-07-28T02:22:45;94948.63;;;12.60;100.00
62103;BME280;48077;48.104;11.702;2023-07-28T02:25:09;94940.88;;;12.59;100.00
62103;BME280;48077;48.104;11.702;2023-07-28T02:27:33;94935.22;;;12.55;100.00
62103;BME280;48077;48.104;11.702;2023-07-28T02:29:56;94937.34;;;12.53;100.00
62103;BME280;48077;48.104;11.702;2023-07-28T02:32:19;94930.66;;;12.50;100.00
62103;BME280;48077;48.104;11.702;2023-07-28T02:34:43;94932.00;;;12.53;100.00
62103;BME280;48077;48.104;11.702;2023-07-28T02:37:06;94935.47;;;12.48;100.00
62103;BME280;48077;48.104;11.702;2023-07-28T02:39:30;94912.34;;;12.32;100.00
62103;BME280;48077;48.104;11.702;2023-07-28T02:41:53;94929.03;;;12.44;100.00
62103;BME280;48077;48.104;11.702;2023-07-28T02:44:17;94920.41;;;12.37;100.00
62103;BME280;48077;48.104;11.702;2023-07-28T02:46:40;94932.19;;;12.41;100.00
62103;BME280;48077;48.104;11.702;2023-07-28T02:49:05;94933.56;;;12.44;100.00
62103;BME280;48077;48.104;11.702;2023-07-28T02:51:30;94933.28;;;12.40;100.00
62103;BME280;48077;48.104;11.702;2023-07-28T02:53:53;94920.94;;;12.34;100.00
62103;BME280;48077;48.104;11.702;2023-07-28T02:56:16;94933.50;;;12.33;100.00
62103;BME280;48077;48.104;11.702;2023-07-28T02:58:40;94918.72;;;12.26;100.00
62103;BME280;48077;48.104;11.702;2023-07-28T03:01:04;94930.28;;;12.31;100.00
62103;BME280;48077;48.104;11.702;2023-07-28T03:03:27;94928.16;;;12.33;100.00
62103;BME280;48077;48.104;11.702;2023-07-28T03:05:52;94928.94;;;12.34;100.00
62103;BME280;48077;48.104;11.702;2023-07-28T03:08:16;94931.63;;;12.34;100.00
62103;BME280;48077;48.104;11.702;2023-07-28T03:10:40;94926.53;;;12.32;100.00
62103;BME280;48077;48.104;11.702;2023-07-28T03:13:03;94932.41;;;12.34;100.00
62103;BME280;48077;48.104;11.702;2023-07-28T03:15:26;94912.03;;;12.23;100.00
62103;BME280;48077;48.104;11.702;2023-07-28T03:17:50;94928.66;;;12.30;100.00
62103;BME280;48077;48.104;11.702;2023-07-28T03:20:14;94928.94;;;12.34;100.00
62103;BME280;48077;48.104;11.702;2023-07-28T03:22:37;94930.28;;;12.37;100.00
62103;BME280;48077;48.104;11.702;2023-07-28T03:25:01;94936.75;;;12.41;100.00
62103;BME280;48077;48.104;11.702;2023-07-28T03:27:24;94933.03;;;12.42;100.00
62103;BME280;48077;48.104;11.702;2023-07-28T03:29:48;94938.63;;;12.40;100.00
62103;BME280;48077;48.104;11.702;2023-07-28T03:32:11;94933.28;;;12.40;100.00
62103;BME280;48077;48.104;11.702;2023-07-28T03:34:34;94916.34;;;12.29;100.00
62103;BME280;48077;48.104;11.702;2023-07-28T03:36:58;94918.25;;;12.34;100.00
62103;BME280;48077;48.104;11.702;2023-07-28T03:39:21;94921.19;;;12.32;100.00
62103;BME280;48077;48.104;11.702;2023-07-28T03:41:45;94936.75;;;12.41;100.00
62103;BME280;48077;48.104;11.702;2023-07-28T03:44:08;94931.94;;;12.38;100.00
62103;BME280;48077;48.104;11.702;2023-07-28T03:46:32;94924.66;;;12.33;100.00
62103;BME280;48077;48.104;11.702;2023-07-28T03:48:55;94931.94;;;12.38;100.00
62103;BME280;48077;48.104;11.702;2023-07-28T03:51:21;94933.50;;;12.33;100.00
62103;BME280;48077;48.104;11.702;2023-07-28T03:53:44;94939.16;;;12.42;100.00
62103;BME280;48077;48.104;11.702;2023-07-28T03:56:07;94927.69;;;12.42;100.00
62103;BME280;48077;48.104;11.702;2023-07-28T03:58:31;94941.63;;;12.54;100.00
62103;BME280;48077;48.104;11.702;2023-07-28T04:00:54;94939.56;;;12.61;100.00
62103;BME280;48077;48.104;11.702;2023-07-28T04:03:17;94926.13;;;12.56;100.00
62103;BME280;48077;48.104;11.702;2023-07-28T04:05:41;94934.50;;;12.70;100.00
62103;BME280;48077;48.104;11.702;2023-07-28T04:08:04;94934.56;;;12.75;100.00
62103;BME280;48077;48.104;11.702;2023-07-28T04:10:28;94938.31;;;12.79;100.00
62103;BME280;48077;48.104;11.702;2023-07-28T04:12:51;94925.47;;;12.81;100.00
62103;BME280;48077;48.104;11.702;2023-07-28T04:15:14;94927.38;;;12.91;100.00
62103;BME280;48077;48.104;11.702;2023-07-28T04:17:38;94922.31;;;12.94;100.00
62103;BME280;48077;48.104;11.702;2023-07-28T04:20:01;94922.31;;;12.94;100.00
62103;BME280;48077;48.104;11.702;2023-07-28T04:22:25;94932.25;;;12.99;100.00
62103;BME280;48077;48.104;11.702;2023-07-28T04:24:48;94928.22;;;13.02;100.00
62103;BME280;48077;48.104;11.702;2023-07-28T04:27:11;94936.31;;;13.07;100.00
62103;BME280;48077;48.104;11.702;2023-07-28T04:29:35;94935.25;;;13.13;100.00
62103;BME280;48077;48.104;11.702;2023-07-28T04:31:58;94935.56;;;13.22;100.00
62103;BME280;48077;48.104;11.702;2023-07-28T04:34:22;94930.78;;;13.29;100.00
62103;BME280;48077;48.104;11.702;2023-07-28T04:36:45;94921.38;;;13.26;100.00
62103;BME280;48077;48.104;11.702;2023-07-28T04:39:08;94913.94;;;13.33;100.00
62103;BME280;48077;48.104;11.702;2023-07-28T04:41:32;94938.34;;;13.57;100.00
62103;BME280;48077;48.104;11.702;2023-07-28T04:43:56;94920.94;;;13.55;100.00
62103;BME280;48077;48.104;11.702;2023-07-28T04:46:19;94927.38;;;13.64;100.00
62103;BME280;48077;48.104;11.702;2023-07-28T04:48:42;94936.78;;;13.72;100.00
62103;BME280;48077;48.104;11.702;2023-07-28T04:51:06;94934.91;;;13.77;100.00
62103;BME280;48077;48.104;11.702;2023-07-28T04:53:29;94936.00;;;13.82;100.00
62103;BME280;48077;48.104;11.702;2023-07-28T04:55:52;94941.91;;;13.84;100.00
62103;BME280;48077;48.104;11.702;2023-07-28T04:58:16;94930.09;;;13.90;100.00
62103;BME280;48077;48.104;11.702;2023-07-28T05:00:39;94940.28;;;14.03;100.00
62103;BME280;48077;48.104;11.702;2023-07-28T05:03:03;94951.28;;;14.12;100.00
62103;BME280;48077;48.104;11.702;2023-07-28T05:05:26;94947.00;;;14.11;100.00
62103;BME280;48077;48.104;11.702;2023-07-28T05:07:49;94953.97;;;14.12;100.00
62103;BME280;48077;48.104;11.702;2023-07-28T05:10:13;94965.50;;;14.23;100.00
62103;BME280;48077;48.104;11.702;2023-07-28T05:12:36;94953.69;;;14.18;100.00
62103;BME280;48077;48.104;11.702;2023-07-28T05:15:00;94959.06;;;14.24;100.00
62103;BME280;48077;48.104;11.702;2023-07-28T05:17:23;94953.16;;;14.27;100.00
62103;BME280;48077;48.104;11.702;2023-07-28T05:19:46;94963.34;;;14.25;100.00
62103;BME280;48077;48.104;11.702;2023-07-28T05:22:10;94965.50;;;14.28;100.00
62103;BME280;48077;48.104;11.702;2023-07-28T05:24:33;94964.72;;;14.27;100.00
62103;BME280;48077;48.104;11.702;2023-07-28T05:26:57;94966.59;;;14.32;100.00
62103;BME280;48077;48.104;11.702;2023-07-28T05:29:20;94969.53;;;14.35;100.00
62103;BME280;48077;48.104;11.702;2023-07-28T05:31:43;94959.59;;;14.31;100.00
62103;BME280;48077;48.104;11.702;2023-07-28T05:34:07;94966.31;;;14.44;100.00
62103;BME280;48077;48.104;11.702;2023-07-28T05:36:30;94971.94;;;14.47;100.00
62103;BME280;48077;48.104;11.702;2023-07-28T05:38:53;94977.56;;;14.51;100.00
62103;BME280;48077;48.104;11.702;2023-07-28T05:41:19;94969.78;;;14.54;100.00
62103;BME280;48077;48.104;11.702;2023-07-28T05:43:43;94964.72;;;14.63;100.00
62103;BME280;48077;48.104;11.702;2023-07-28T05:46:06;94985.09;;;14.80;100.00
62103;BME280;48077;48.104;11.702;2023-07-28T05:48:29;94973.78;;;14.83;100.00
62103;BME280;48077;48.104;11.702;2023-07-28T05:50:53;94985.03;;;14.95;100.00
62103;BME280;48077;48.104;11.702;2023-07-28T05:53:16;94987.97;;;15.04;100.00
62103;BME280;48077;48.104;11.702;2023-07-28T05:55:40;94987.66;;;15.10;100.00
62103;BME280;48077;48.104;11.702;2023-07-28T05:58:03;94989.00;;;15.23;100.00
62103;BME280;48077;48.104;11.702;2023-07-28T06:00:26;94971.53;;;15.21;100.00
62103;BME280;48077;48.104;11.702;2023-07-28T06:02:51;94990.03;;;15.37;100.00
62103;BME280;48077;48.104;11.702;2023-07-28T06:05:14;94994.00;;;15.50;100.00
62103;BME280;48077;48.104;11.702;2023-07-28T06:07:38;94989.63;;;15.59;100.00
62103;BME280;48077;48.104;11.702;2023-07-28T06:10:01;95000.34;;;15.70;100.00
62103;BME280;48077;48.104;11.702;2023-07-28T06:12:25;94992.00;;;15.76;100.00
62103;BME280;48077;48.104;11.702;2023-07-28T06:14:49;95009.91;;;15.96;100.00
62103;BME280;48077;48.104;11.702;2023-07-28T06:17:12;95012.88;;;16.00;99.03
62103;BME280;48077;48.104;11.702;2023-07-28T06:19:35;95012.03;;;16.05;98.24
62103;BME280;48077;48.104;11.702;2023-07-28T06:21:59;95011.19;;;16.09;97.79
62103;BME280;48077;48.104;11.702;2023-07-28T06:24:22;95018.59;;;16.23;96.39
62103;BME280;48077;48.104;11.702;2023-07-28T06:26:48;95010.84;;;16.21;96.35
62103;BME280;48077;48.104;11.702;2023-07-28T06:29:13;95006.50;;;16.25;96.07
62103;BME280;48077;48.104;11.702;2023-07-28T06:31:36;95011.03;;;16.30;96.19
62103;BME280;48077;48.104;11.702;2023-07-28T06:34:00;95023.31;;;16.46;96.18
62103;BME280;48077;48.104;11.702;2023-07-28T06:36:23;95023.44;;;16.60;95.30
62103;BME280;48077;48.104;11.702;2023-07-28T06:38:47;95021.25;;;16.67;94.51
62103;BME280;48077;48.104;11.702;2023-07-28T06:41:12;95040.69;;;16.93;93.65
62103;BME280;48077;48.104;11.702;2023-07-28T06:43:35;95033.88;;;17.01;92.07
62103;BME280;48077;48.104;11.702;2023-07-28T06:45:59;95020.16;;;17.03;91.22
62103;BME280;48077;48.104;11.702;2023-07-28T06:48:22;95028.94;;;17.13;90.50
62103;BME280;48077;48.104;11.702;2023-07-28T06:50:46;95042.81;;;17.26;89.74
62103;BME280;48077;48.104;11.702;2023-07-28T06:53:09;95038.91;;;17.37;88.85
62103;BME280;48077;48.104;11.702;2023-07-28T06:55:32;95050.69;;;17.46;87.43
62103;BME280;48077;48.104;11.702;2023-07-28T06:57:56;95046.78;;;17.57;87.13
62103;BME280;48077;48.104;11.702;2023-07-28T07:00:19;95041.53;;;17.66;85.97
62103;BME280;48077;48.104;11.702;2023-07-28T07:02:42;95042.41;;;17.62;83.81
62103;BME280;48077;48.104;11.702;2023-07-28T07:05:06;95060.38;;;17.71;84.72
62103;BME280;48077;48.104;11.702;2023-07-28T07:07:30;95058.19;;;17.73;85.78
62103;BME280;48077;48.104;11.702;2023-07-28T07:09:53;95052.03;;;17.68;84.71
62103;BME280;48077;48.104;11.702;2023-07-28T07:12:17;95037.69;;;17.72;81.89
62103;BME280;48077;48.104;11.702;2023-07-28T07:14:40;95039.47;;;17.82;79.18
62103;BME280;48077;48.104;11.702;2023-07-28T07:17:04;95045.78;;;17.96;79.88
62103;BME280;48077;48.104;11.702;2023-07-28T07:19:28;95037.41;;;18.17;77.88
62103;BME280;48077;48.104;11.702;2023-07-28T07:21:52;95037.56;;;18.26;76.70
62103;BME280;48077;48.104;11.702;2023-07-28T07:24:15;95044.53;;;18.46;75.54
62103;BME280;48077;48.104;11.702;2023-07-28T07:26:39;95042.84;;;18.50;76.24
62103;BME280;48077;48.104;11.702;2023-07-28T07:29:03;95040.88;;;18.55;76.42
62103;BME280;48077;48.104;11.702;2023-07-28T07:31:26;95053.22;;;18.61;76.56
62103;BME280;48077;48.104;11.702;2023-07-28T07:33:50;95046.63;;;18.68;76.83
62103;BME280;48077;48.104;11.702;2023-07-28T07:36:14;95045.16;;;18.75;76.01
62103;BME280;48077;48.104;11.702;2023-07-28T07:38:37;95047.00;;;18.80;76.46
62103;BME280;48077;48.104;11.702;2023-07-28T07:41:01;95050.72;;;18.84;75.89
62103;BME280;48077;48.104;11.702;2023-07-28T07:43:25;95050.50;;;18.80;75.31
62103;BME280;48077;48.104;11.702;2023-07-28T07:45:48;95044.81;;;18.82;74.10
62103;BME280;48077;48.104;11.702;2023-07-28T07:48:15;95053.94;;;18.86;73.78
62103;BME280;48077;48.104;11.702;2023-07-28T07:50:38;95029.34;;;18.88;73.92
62103;BME280;48077;48.104;11.702;2023-07-28T07:53:02;95049.72;;;19.13;72.92
62103;BME280;48077;48.104;11.702;2023-07-28T07:55:27;95052.72;;;19.39;71.92
62103;BME280;48077;48.104;11.702;2023-07-28T07:57:51;95049.66;;;19.59;71.09
62103;BME280;48077;48.104;11.702;2023-07-28T08:00:14;95060.50;;;19.73;71.27
62103;BME280;48077;48.104;11.702;2023-07-28T08:02:38;95046.97;;;19.73;70.66
62103;BME280;48077;48.104;11.702;2023-07-28T08:05:01;95053.38;;;19.77;69.47
62103;BME280;48077;48.104;11.702;2023-07-28T08:07:26;95042.44;;;19.83;70.35
62103;BME280;48077;48.104;11.702;2023-07-28T08:09:49;95031.69;;;20.05;69.89
62103;BME280;48077;48.104;11.702;2023-07-28T08:12:14;95036.50;;;20.08;70.22
62103;BME280;48077;48.104;11.702;2023-07-28T08:14:37;95044.59;;;20.08;70.71
62103;BME280;48077;48.104;11.702;2023-07-28T08:17:01;95031.91;;;20.09;70.74
62103;BME280;48077;48.104;11.702;2023-07-28T08:19:24;95041.47;;;20.29;70.22
62103;BME280;48077;48.104;11.702;2023-07-28T08:21:48;95032.03;;;20.26;71.25
62103;BME280;48077;48.104;11.702;2023-07-28T08:24:11;94984.16;;;20.13;70.64
62103;BME280;48077;48.104;11.702;2023-07-28T08:26:35;95046.91;;;20.65;69.87
62103;BME280;48077;48.104;11.702;2023-07-28T08:28:58;95036.56;;;20.67;70.08
62103;BME280;48077;48.104;11.702;2023-07-28T08:31:21;95043.44;;;20.73;67.89
62103;BME280;48077;48.104;11.702;2023-07-28T08:33:45;94969.03;;;20.34;69.00
62103;BME280;48077;48.104;11.702;2023-07-28T08:36:08;95025.97;;;20.79;69.29
62103;BME280;48077;48.104;11.702;2023-07-28T08:38:31;94973.66;;;20.56;68.51
62103;BME280;48077;48.104;11.702;2023-07-28T08:40:56;94998.72;;;20.85;68.54
62103;BME280;48077;48.104;11.702;2023-07-28T08:43:21;95005.31;;;21.23;68.71
62103;BME280;48077;48.104;11.702;2023-07-28T08:45:45;95035.66;;;21.66;69.30
62103;BME280;48077;48.104;11.702;2023-07-28T08:48:08;95010.13;;;21.67;67.69
62103;BME280;48077;48.104;11.702;2023-07-28T08:50:31;95006.00;;;21.69;66.28
62103;BME280;48077;48.104;11.702;2023-07-28T08:52:56;95004.09;;;21.78;65.66
62103;BME280;48077;48.104;11.702;2023-07-28T08:55:20;95041.97;;;21.92;63.42
62103;BME280;48077;48.104;11.702;2023-07-28T08:57:43;95033.03;;;21.92;63.84
62103;BME280;48077;48.104;11.702;2023-07-28T09:00:10;95054.97;;;22.21;63.93
62103;BME280;48077;48.104;11.702;2023-07-28T09:02:36;94995.66;;;22.06;62.13
62103;BME280;48077;48.104;11.702;2023-07-28T09:05:02;94964.03;;;21.93;62.75
62103;BME280;48077;48.104;11.702;2023-07-28T09:07:33;95023.72;;;22.59;58.54
62103;BME280;48077;48.104;11.702;2023-07-28T09:10:00;95033.09;;;22.79;59.11
62103;BME280;48077;48.104;11.702;2023-07-28T09:12:24;94992.19;;;22.67;59.78
62103;BME280;48077;48.104;11.702;2023-07-28T09:14:47;95012.31;;;22.74;57.27
62103;BME280;48077;48.104;11.702;2023-07-28T09:17:13;95038.56;;;22.88;56.90
62103;BME280;48077;48.104;11.702;2023-07-28T09:19:50;95045.44;;;23.02;57.83
62103;BME280;48077;48.104;11.702;2023-07-28T09:22:14;95005.63;;;22.63;56.74
62103;BME280;48077;48.104;11.702;2023-07-28T09:24:38;95037.13;;;22.81;57.51
62103;BME280;48077;48.104;11.702;2023-07-28T09:27:01;95006.28;;;22.51;57.98
62103;BME280;48077;48.104;11.702;2023-07-28T09:29:25;95036.31;;;22.63;58.88
62103;BME280;48077;48.104;11.702;2023-07-28T09:31:51;95007.38;;;22.41;58.94
62103;BME280;48077;48.104;11.702;2023-07-28T09:34:27;95032.66;;;22.51;58.63
62103;BME280;48077;48.104;11.702;2023-07-28T09:36:53;95058.69;;;22.52;58.02
62103;BME280;48077;48.104;11.702;2023-07-28T09:39:20;95027.53;;;22.23;58.55
62103;BME280;48077;48.104;11.702;2023-07-28T09:41:52;95065.72;;;22.35;59.96
62103;BME280;48077;48.104;11.702;2023-07-28T09:44:18;95070.34;;;22.26;60.17
62103;BME280;48077;48.104;11.702;2023-07-28T09:46:55;95061.56;;;22.29;59.74
62103;BME280;48077;48.104;11.702;2023-07-28T09:49:34;95047.75;;;22.08;59.33
62103;BME280;48077;48.104;11.702;2023-07-28T09:52:04;95025.38;;;21.94;59.33
62103;BME280;48077;48.104;11.702;2023-07-28T09:54:29;95061.19;;;22.05;60.04
62103;BME280;48077;48.104;11.702;2023-07-28T09:56:57;95013.38;;;21.77;61.00
62103;BME280;48077;48.104;11.702;2023-07-28T09:59:37;95007.44;;;21.75;60.83
62103;BME280;48077;48.104;11.702;2023-07-28T10:02:01;95060.88;;;22.15;60.08
62103;BME280;48077;48.104;11.702;2023-07-28T10:04:25;95011.28;;;21.83;60.51
62103;BME280;48077;48.104;11.702;2023-07-28T10:06:50;95002.53;;;21.86;59.42
62103;BME280;48077;48.104;11.702;2023-07-28T10:09:14;94980.63;;;21.82;59.26
62103;BME280;48077;48.104;11.702;2023-07-28T10:11:39;95003.50;;;22.08;59.52
62103;BME280;48077;48.104;11.702;2023-07-28T10:14:02;94999.69;;;22.17;59.96
62103;BME280;48077;48.104;11.702;2023-07-28T10:16:39;95007.09;;;22.26;59.88
62103;BME280;48077;48.104;11.702;2023-07-28T10:19:02;95015.41;;;22.47;58.06
62103;BME280;48077;48.104;11.702;2023-07-28T10:21:27;95030.09;;;22.63;58.19
62103;BME280;48077;48.104;11.702;2023-07-28T10:23:56;95049.28;;;22.84;58.81
62103;BME280;48077;48.104;11.702;2023-07-28T10:26:47;95049.75;;;23.03;57.26
62103;BME280;48077;48.104;11.702;2023-07-28T10:29:13;95014.72;;;22.84;55.56
62103;BME280;48077;48.104;11.702;2023-07-28T10:31:49;95016.00;;;22.87;57.25
62103;BME280;48077;48.104;11.702;2023-07-28T10:34:16;95025.75;;;22.88;57.53
62103;BME280;48077;48.104;11.702;2023-07-28T10:36:39;95048.16;;;22.94;57.36
62103;BME280;48077;48.104;11.702;2023-07-28T10:39:16;95011.69;;;22.69;56.46
62103;BME280;48077;48.104;11.702;2023-07-28T10:42:00;95001.16;;;22.41;56.60
62103;BME280;48077;48.104;11.702;2023-07-28T10:44:24;95035.84;;;22.61;56.08
62103;BME280;48077;48.104;11.702;2023-07-28T10:46:48;95046.72;;;22.70;56.49
62103;BME280;48077;48.104;11.702;2023-07-28T10:49:11;95072.47;;;22.81;55.94
62103;BME280;48077;48.104;11.702;2023-07-28T10:51:35;95038.88;;;22.51;55.10
62103;BME280;48077;48.104;11.702;2023-07-28T10:53:59;95071.19;;;22.61;55.02
62103;BME280;48077;48.104;11.702;2023-07-28T10:56:24;95022.91;;;22.32;55.23
62103;BME280;48077;48.104;11.702;2023-07-28T10:58:56;95082.22;;;22.56;56.04
62103;BME280;48077;48.104;11.702;2023-07-28T11:01:21;95053.44;;;22.29;55.83
62103;BME280;48077;48.104;11.702;2023-07-28T11:03:45;95016.78;;;22.09;54.84
62103;BME280;48077;48.104;11.702;2023-07-28T11:06:08;95021.56;;;22.12;56.21
62103;BME280;48077;48.104;11.702;2023-07-28T11:08:32;95063.66;;;22.32;55.80
62103;BME280;48077;48.104;11.702;2023-07-28T11:10:57;95022.19;;;22.09;56.42
62103;BME280;48077;48.104;11.702;2023-07-28T11:13:21;95031.63;;;22.12;56.08
62103;BME280;48077;48.104;11.702;2023-07-28T11:15:45;95024.44;;;22.16;56.24
62103;BME280;48077;48.104;11.702;2023-07-28T11:18:08;95062.69;;;22.46;56.39
62103;BME280;48077;48.104;11.702;2023-07-28T11:20:33;95087.97;;;22.72;56.72
62103;BME280;48077;48.104;11.702;2023-07-28T11:22:58;95040.81;;;22.59;55.53
62103;BME280;48077;48.104;11.702;2023-07-28T11:25:26;95085.41;;;23.02;54.46
62103;BME280;48077;48.104;11.702;2023-07-28T11:27:50;95042.38;;;22.87;53.46
62103;BME280;48077;48.104;11.702;2023-07-28T11:30:15;95013.94;;;22.75;53.76
62103;BME280;48077;48.104;11.702;2023-07-28T11:32:39;95028.31;;;22.76;54.58
62103;BME280;48077;48.104;11.702;2023-07-28T11:35:09;95060.94;;;23.02;54.23
62103;BME280;48077;48.104;11.702;2023-07-28T11:37:33;95075.03;;;23.13;54.55
62103;BME280;48077;48.104;11.702;2023-07-28T11:39:59;95057.41;;;23.01;55.45
62103;BME280;48077;48.104;11.702;2023-07-28T11:42:23;95056.47;;;23.15;54.63
62103;BME280;48077;48.104;11.702;2023-07-28T11:44:46;95062.84;;;23.10;54.55
62103;BME280;48077;48.104;11.702;2023-07-28T11:47:18;95046.03;;;22.99;55.00
62103;BME280;48077;48.104;11.702;2023-07-28T11:49:48;95058.69;;;23.13;53.68
62103;BME280;48077;48.104;11.702;2023-07-28T11:52:15;95074.19;;;23.30;53.97
62103;BME280;48077;48.104;11.702;2023-07-28T11:54:38;95064.38;;;23.37;53.94
62103;BME280;48077;48.104;11.702;2023-07-28T11:57:02;95066.44;;;23.49;52.97
62103;BME280;48077;48.104;11.702;2023-07-28T11:59:25;95053.09;;;23.65;53.89
62103;BME280;48077;48.104;11.702;2023-07-28T12:01:54;95030.38;;;23.61;52.49
62103;BME280;48077;48.104;11.702;2023-07-28T12:04:27;95053.50;;;23.84;53.01
62103;BME280;48077;48.104;11.702;2023-07-28T12:07:07;95040.84;;;23.89;51.63
62103;BME280;48077;48.104;11.702;2023-07-28T12:12:12;95049.09;;;24.01;51.97
62103;BME280;48077;48.104;11.702;2023-07-28T12:14:36;95032.16;;;23.95;50.98
62103;BME280;48077;48.104;11.702;2023-07-28T12:16:59;95059.06;;;24.48;48.86
62103;BME280;48077;48.104;11.702;2023-07-28T12:19:23;95058.19;;;24.35;50.60
62103;BME280;48077;48.104;11.702;2023-07-28T12:21:47;95047.19;;;24.22;50.15
62103;BME280;48077;48.104;11.702;2023-07-28T12:24:11;95058.72;;;24.28;49.78
62103;BME280;48077;48.104;11.702;2023-07-28T12:26:34;95029.81;;;24.15;50.27
62103;BME280;48077;48.104;11.702;2023-07-28T12:28:57;95011.47;;;24.24;50.42
62103;BME280;48077;48.104;11.702;2023-07-28T12:31:21;95027.16;;;24.27;50.03
62103;BME280;48077;48.104;11.702;2023-07-28T12:33:44;95011.19;;;24.17;50.76
62103;BME280;48077;48.104;11.702;2023-07-28T12:36:08;95033.56;;;24.52;50.31
62103;BME280;48077;48.104;11.702;2023-07-28T12:38:31;95012.25;;;24.54;50.20
62103;BME280;48077;48.104;11.702;2023-07-28T12:40:55;95033.22;;;24.54;51.08